Time;durP1;ratioP1;P1;durP2;ratioP2;P2;SDS_P1;SDS_P2;PMS_P1;PMS_P2;Temp;Humidity;BMP_temperature;BMP_pressure;BME280_temperature;BME280_humidity;BME280_pressure;Samples;Min_cycle;Max_cycle;Signal;HPM_P1;HPM_P2
2021/05/29 00:02:03;;;;;;;10.72;6.10;;;;;;;14.74;100.00;98873.84;1753577;81;21066;-73
2021/05/29 00:04:30;;;;;;;8.03;5.97;;;;;;;14.74;100.00;98870.28;1751711;80;21559;-73
2021/05/29 00:06:57;;;;;;;10.88;5.92;;;;;;;14.74;100.00;98867.52;1744289;81;20987;-73
2021/05/29 00:09:23;;;;;;;6.70;5.83;;;;;;;14.72;100.00;98867.88;1759886;80;21585;-73
2021/05/29 00:11:51;;;;;;;11.28;6.30;;;;;;;14.71;100.00;98866.86;1750988;80;20970;-72
2021/05/29 00:14:18;;;;;;;13.68;6.58;;;;;;;14.69;100.00;98874.13;1759463;80;21690;-72
2021/05/29 00:16:44;;;;;;;8.60;6.33;;;;;;;14.69;100.00;98884.38;1769363;80;21544;-73
2021/05/29 00:19:11;;;;;;;9.00;6.45;;;;;;;14.68;100.00;98890.48;1778547;80;21022;-73
2021/05/29 00:21:37;;;;;;;8.95;6.22;;;;;;;14.69;100.00;98892.08;1774412;80;20914;-73
2021/05/29 00:24:06;;;;;;;9.85;6.45;;;;;;;14.70;100.00;98881.25;1759266;80;20951;-73
2021/05/29 00:26:33;;;;;;;12.68;6.92;;;;;;;14.72;100.00;98890.56;1738636;81;21202;-73
2021/05/29 00:29:00;;;;;;;7.70;6.10;;;;;;;14.71;100.00;98888.95;1746587;81;20923;-75
2021/05/29 00:31:27;;;;;;;13.85;7.40;;;;;;;14.69;100.00;98885.75;1705123;83;21520;-75
2021/05/29 00:33:53;;;;;;;11.08;7.72;;;;;;;14.66;100.00;98885.89;1757600;80;21050;-72
2021/05/29 00:36:20;;;;;;;9.90;7.33;;;;;;;14.65;100.00;98880.14;1734075;81;21021;-72
2021/05/29 00:38:49;;;;;;;8.88;6.97;;;;;;;14.66;100.00;98880.95;1745178;81;21886;-74
2021/05/29 00:41:18;;;;;;;12.13;7.30;;;;;;;14.65;100.00;98879.34;1744017;81;21493;-74
2021/05/29 00:43:46;;;;;;;10.32;7.42;;;;;;;14.63;100.00;98876.14;1710572;82;21034;-74
2021/05/29 00:46:13;;;;;;;11.63;8.23;;;;;;;14.62;100.00;98873.16;1746905;80;21029;-74
2021/05/29 00:48:41;;;;;;;10.43;8.48;;;;;;;14.63;100.00;98871.41;1752921;81;20919;-74
2021/05/29 00:51:08;;;;;;;13.68;9.10;;;;;;;14.61;100.00;98868.20;1752862;80;21088;-72
2021/05/29 00:53:36;;;;;;;17.62;9.00;;;;;;;14.62;100.00;98875.92;1704538;82;21011;-72
2021/05/29 00:56:05;;;;;;;14.38;9.90;;;;;;;14.62;100.00;98871.19;1751670;80;21697;-72
2021/05/29 00:58:31;;;;;;;14.95;10.28;;;;;;;14.63;100.00;98871.41;1743067;81;21613;-73
2021/05/29 01:00:58;;;;;;;21.85;10.25;;;;;;;14.66;100.00;98875.42;1712295;83;20886;-73
2021/05/29 01:03:25;;;;;;;15.88;10.55;;;;;;;14.65;100.00;98861.39;1705061;82;21055;-73
2021/05/29 01:05:51;;;;;;;19.82;10.65;;;;;;;14.63;100.00;98862.33;1755418;80;20903;-73
2021/05/29 01:08:18;;;;;;;19.17;11.12;;;;;;;14.60;100.00;98860.28;1771210;79;20894;-74
2021/05/29 01:10:46;;;;;;;15.75;11.08;;;;;;;14.59;100.00;98863.63;1777633;79;21009;-73
2021/05/29 01:13:12;;;;;;;17.52;12.13;;;;;;;14.61;100.00;98863.27;1680410;83;21118;-73
2021/05/29 01:15:45;;;;;;;18.05;12.43;;;;;;;14.62;100.00;98860.73;1701858;81;21560;-73
2021/05/29 01:18:16;;;;;;;15.48;11.80;;;;;;;14.60;100.00;98858.90;1777673;80;20926;-75
2021/05/29 01:20:45;;;;;;;15.32;11.28;;;;;;;14.61;100.00;98854.40;1774704;80;21040;-75
2021/05/29 01:23:13;;;;;;;15.70;11.28;;;;;;;14.61;100.00;98852.22;1759251;79;21607;-75
2021/05/29 01:25:45;;;;;;;14.63;9.20;;;;;;;14.61;100.00;98853.02;1757596;81;20997;-72
2021/05/29 01:28:24;;;;;;;16.12;10.72;;;;;;;14.61;100.00;98848.08;1757479;80;21145;-74
2021/05/29 01:31:01;;;;;;;20.15;11.20;;;;;;;14.59;100.00;98848.44;1680216;83;20918;-75
2021/05/29 01:33:30;;;;;;;15.58;10.85;;;;;;;14.60;100.00;98843.13;1738651;80;20926;-75
2021/05/29 01:36:00;;;;;;;13.65;8.83;;;;;;;14.58;100.00;98841.30;1719325;82;20898;-73
2021/05/29 01:38:27;;;;;;;11.78;8.88;;;;;;;14.58;100.00;98839.12;1744114;81;20926;-72
2021/05/29 01:41:01;;;;;;;14.78;9.25;;;;;;;14.57;100.00;98833.38;1728882;81;22025;-73
2021/05/29 01:43:28;;;;;;;16.30;9.28;;;;;;;14.58;100.00;98834.98;1729569;82;20855;-72
2021/05/29 01:45:54;;;;;;;16.60;9.65;;;;;;;14.57;100.00;98830.03;1720585;82;21014;-72
2021/05/29 01:48:22;;;;;;;11.97;8.95;;;;;;;14.56;100.00;98826.25;1718593;82;20990;-72
2021/05/29 01:50:49;;;;;;;12.55;9.23;;;;;;;14.57;100.00;98834.76;1721162;82;21016;-72
2021/05/29 01:53:18;;;;;;;15.03;8.85;;;;;;;14.57;100.00;98836.94;1717137;82;21155;-72
2021/05/29 01:55:47;;;;;;;11.57;8.15;;;;;;;14.56;100.00;98831.78;1718043;82;21639;-72
2021/05/29 01:58:15;;;;;;;13.35;7.90;;;;;;;14.57;100.00;98834.18;1723710;83;20911;-72
2021/05/29 02:00:42;;;;;;;10.85;8.30;;;;;;;14.59;100.00;98830.48;1724596;82;21709;-72
2021/05/29 02:03:08;;;;;;;20.05;8.78;;;;;;;14.56;100.00;98828.44;1726680;82;20990;-72
2021/05/29 02:05:35;;;;;;;12.50;7.92;;;;;;;14.56;100.00;98827.63;1688353;83;21036;-72
2021/05/29 02:08:05;;;;;;;11.48;8.05;;;;;;;14.57;100.00;98823.13;1709322;82;20894;-74
2021/05/29 02:10:34;;;;;;;11.48;8.38;;;;;;;14.57;100.00;98830.03;1727255;82;21006;-73
2021/05/29 02:13:03;;;;;;;12.88;8.43;;;;;;;14.55;100.00;98833.73;1712912;82;20887;-73
2021/05/29 02:15:34;;;;;;;11.60;8.45;;;;;;;14.55;100.00;98833.73;1723121;82;21402;-73
2021/05/29 02:18:03;;;;;;;11.33;8.78;;;;;;;14.56;100.00;98831.78;1716846;82;21093;-73
2021/05/29 02:20:53;;;;;;;10.80;7.60;;;;;;;14.53;100.00;98831.91;1720736;82;20931;-73
2021/05/29 02:23:28;;;;;;;13.08;9.05;;;;;;;14.53;100.00;98832.72;1713590;82;20974;-72
2021/05/29 02:26:02;;;;;;;10.08;6.62;;;;;;;14.51;100.00;98832.27;1728075;82;20990;-73
2021/05/29 02:28:28;;;;;;;17.82;9.00;;;;;;;14.50;100.00;98834.02;1725693;82;20968;-73
2021/05/29 02:30:56;;;;;;;13.75;8.93;;;;;;;14.48;100.00;98832.98;1730975;81;20906;-73
2021/05/29 02:33:22;;;;;;;12.03;8.93;;;;;;;14.48;100.00;98830.81;1728497;81;21010;-74
2021/05/29 02:35:49;;;;;;;21.15;10.23;;;;;;;14.43;100.00;98833.88;1729127;81;20962;-74
2021/05/29 02:38:15;;;;;;;15.58;11.90;;;;;;;14.42;100.00;98833.08;1713854;82;21584;-74
2021/05/29 02:40:42;;;;;;;15.95;12.15;;;;;;;14.40;100.00;98831.22;1674030;85;20981;-72
2021/05/29 02:43:08;;;;;;;23.60;14.33;;;;;;;14.39;100.00;98832.38;1674073;85;21055;-71
2021/05/29 02:45:35;;;;;;;20.75;13.78;;;;;;;14.39;100.00;98828.81;1720303;82;21014;-74
2021/05/29 02:48:02;;;;;;;21.73;15.70;;;;;;;14.37;100.00;98830.55;1728801;80;20879;-74
2021/05/29 02:50:29;;;;;;;22.05;15.38;;;;;;;14.36;100.00;98825.39;1731533;80;20926;-73
2021/05/29 02:52:55;;;;;;;22.98;15.53;;;;;;;14.36;100.00;98833.09;1723081;82;21006;-74
2021/05/29 02:55:23;;;;;;;28.40;15.60;;;;;;;14.34;100.00;98830.47;1716875;81;21394;-74
2021/05/29 02:57:51;;;;;;;26.77;16.00;;;;;;;14.30;100.00;98834.52;1720634;82;20995;-74
2021/05/29 03:00:20;;;;;;;19.50;14.25;;;;;;;14.28;100.00;98832.70;1724139;81;20978;-74
2021/05/29 03:02:48;;;;;;;20.37;12.45;;;;;;;14.27;100.00;98832.48;1723632;81;21045;-74
2021/05/29 03:05:16;;;;;;;16.97;11.80;;;;;;;14.26;100.00;98839.16;1729501;81;21615;-75
2021/05/29 03:07:43;;;;;;;14.95;11.38;;;;;;;14.23;100.00;98841.25;1724580;81;21001;-73
2021/05/29 03:10:10;;;;;;;14.80;9.38;;;;;;;14.19;100.00;98841.73;1726377;80;20890;-74
2021/05/29 03:12:37;;;;;;;10.13;7.95;;;;;;;14.18;100.00;98838.75;1735931;81;20997;-73
2021/05/29 03:15:08;;;;;;;6.87;6.10;;;;;;;14.14;100.00;98837.28;1740322;81;21623;-74
2021/05/29 03:17:35;;;;;;;7.90;4.90;;;;;;;14.10;100.00;98842.49;1728186;82;20994;-75
2021/05/29 03:20:01;;;;;;;6.25;4.37;;;;;;;14.05;100.00;98837.23;1726192;81;21049;-75
2021/05/29 03:22:29;;;;;;;5.10;4.40;;;;;;;14.04;100.00;98845.30;1728139;81;21149;-72
2021/05/29 03:24:56;;;;;;;5.47;4.20;;;;;;;14.02;100.00;98846.23;1730022;82;20963;-71
2021/05/29 03:27:22;;;;;;;5.70;4.00;;;;;;;14.02;100.00;98850.36;1730675;81;21084;-71
2021/05/29 03:29:49;;;;;;;4.85;4.10;;;;;;;14.00;100.00;98840.27;1730907;81;21529;-71
2021/05/29 03:32:15;;;;;;;6.03;3.42;;;;;;;14.02;100.00;98852.55;1726807;82;21042;-71
2021/05/29 03:34:44;;;;;;;5.78;3.45;;;;;;;14.02;100.00;98851.75;1715831;80;20898;-75
2021/05/29 03:37:11;;;;;;;6.53;3.25;;;;;;;14.00;100.00;98859.58;1735318;81;20919;-73
2021/05/29 03:39:39;;;;;;;5.00;2.62;;;;;;;13.97;100.00;98853.39;1735339;82;21478;-75
2021/05/29 03:42:07;;;;;;;3.05;2.80;;;;;;;13.95;100.00;98855.70;1733474;81;20969;-73
2021/05/29 03:44:33;;;;;;;2.90;2.58;;;;;;;13.94;100.00;98859.61;1728783;82;21059;-75
2021/05/29 03:47:01;;;;;;;2.22;2.02;;;;;;;13.93;100.00;98863.53;1743277;79;21064;-74
2021/05/29 03:49:28;;;;;;;5.67;3.10;;;;;;;13.89;100.00;98864.81;1735940;80;21000;-75
2021/05/29 03:51:55;;;;;;;2.77;2.58;;;;;;;13.85;100.00;98855.09;1722587;82;20942;-74
2021/05/29 03:54:21;;;;;;;3.37;2.42;;;;;;;13.83;100.00;98867.06;1731813;82;20913;-74
2021/05/29 03:56:48;;;;;;;5.97;2.33;;;;;;;13.80;100.00;98856.73;1745891;81;21065;-74
2021/05/29 03:59:15;;;;;;;2.20;2.00;;;;;;;13.78;100.00;98861.80;1722915;82;20994;-74
2021/05/29 04:01:44;;;;;;;4.58;2.45;;;;;;;13.78;100.00;98863.76;1714057;83;21541;-74
2021/05/29 04:04:11;;;;;;;3.80;2.47;;;;;;;13.78;100.00;98869.27;1722318;82;20899;-74
2021/05/29 04:06:38;;;;;;;2.27;2.08;;;;;;;13.78;100.00;98874.80;1733037;81;20983;-74
2021/05/29 04:09:06;;;;;;;3.45;1.90;;;;;;;13.77;100.00;98883.64;1728805;81;21514;-74
2021/05/29 04:11:33;;;;;;;2.52;2.33;;;;;;;13.77;100.00;98879.51;1726790;81;21017;-74
2021/05/29 04:14:00;;;;;;;2.60;2.40;;;;;;;13.79;100.00;98886.05;1732161;81;20887;-75
2021/05/29 04:16:26;;;;;;;2.98;2.70;;;;;;;13.79;100.00;98888.23;1735362;81;21038;-75
2021/05/29 04:18:52;;;;;;;3.00;2.80;;;;;;;13.79;100.00;98882.72;1726465;81;20959;-74
2021/05/29 04:21:19;;;;;;;3.37;2.60;;;;;;;13.81;100.00;98888.68;1727606;81;21096;-74
2021/05/29 04:23:46;;;;;;;3.85;3.40;;;;;;;13.83;100.00;98887.75;1764458;80;20966;-75
2021/05/29 04:26:14;;;;;;;6.15;3.85;;;;;;;13.85;100.00;98888.20;1714730;81;21046;-75
2021/05/29 04:28:40;;;;;;;4.12;3.33;;;;;;;13.89;100.00;98889.06;1725306;81;20911;-74
2021/05/29 04:31:06;;;;;;;4.78;3.55;;;;;;;13.92;100.00;98885.38;1661651;83;21097;-74
2021/05/29 04:33:34;;;;;;;4.47;3.98;;;;;;;13.92;100.00;98886.76;1727173;82;21798;-74
2021/05/29 04:36:01;;;;;;;4.15;3.77;;;;;;;13.92;100.00;98884.00;1727722;81;21096;-74
2021/05/29 04:38:27;;;;;;;4.92;4.35;;;;;;;13.94;100.00;98877.55;1724022;81;20922;-74
2021/05/29 04:40:55;;;;;;;4.47;4.08;;;;;;;13.94;100.00;98883.07;1727235;81;21059;-74
2021/05/29 04:43:22;;;;;;;3.90;3.60;;;;;;;13.96;100.00;98876.62;1721497;82;21646;-75
2021/05/29 04:45:48;;;;;;;3.92;3.62;;;;;;;13.95;100.00;98881.91;1717352;81;21995;-74
2021/05/29 04:48:17;;;;;;;4.55;4.15;;;;;;;13.97;100.00;98886.50;1734998;81;20954;-76
2021/05/29 04:53:29;;;;;;;5.65;4.05;;;;;;;14.03;100.00;98879.56;1724061;82;20958;-79
2021/05/29 04:55:56;;;;;;;4.33;3.92;;;;;;;14.04;100.00;98877.03;1742951;80;20978;-74
2021/05/29 04:58:23;;;;;;;4.08;3.72;;;;;;;14.02;100.00;98883.48;1725276;80;21822;-75
2021/05/29 05:00:52;;;;;;;5.28;4.05;;;;;;;14.01;100.00;98881.88;1738062;80;21028;-76
2021/05/29 05:03:18;;;;;;;3.62;3.27;;;;;;;14.00;100.00;98887.98;1738941;82;20945;-75
2021/05/29 05:05:45;;;;;;;4.53;3.60;;;;;;;14.01;100.00;98886.02;1740245;80;21005;-75
2021/05/29 05:08:11;;;;;;;4.25;3.80;;;;;;;13.96;100.00;98884.89;1739219;82;20901;-76
2021/05/29 05:10:38;;;;;;;4.65;3.58;;;;;;;13.92;100.00;98889.52;1744488;80;21433;-74
2021/05/29 05:13:04;;;;;;;3.67;3.37;;;;;;;13.88;100.00;98890.22;1741299;81;21542;-74
2021/05/29 05:15:32;;;;;;;5.50;2.90;;;;;;;13.87;100.00;98890.58;1743861;81;20946;-74
2021/05/29 05:17:59;;;;;;;3.12;2.83;;;;;;;13.87;100.00;98892.76;1740301;80;20898;-72
2021/05/29 05:20:26;;;;;;;2.65;2.45;;;;;;;13.89;100.00;98892.41;1747846;81;21021;-74
2021/05/29 05:22:52;;;;;;;2.62;2.42;;;;;;;13.91;100.00;98900.33;1747400;80;21570;-75
2021/05/29 05:25:18;;;;;;;4.70;2.30;;;;;;;13.91;100.00;98900.33;1730998;80;20988;-74
2021/05/29 05:27:45;;;;;;;2.95;2.55;;;;;;;13.93;100.00;98903.53;1727352;80;21017;-75
2021/05/29 05:30:14;;;;;;;2.55;2.35;;;;;;;13.96;100.00;98909.16;1737410;80;20955;-75
2021/05/29 05:32:41;;;;;;;2.52;2.00;;;;;;;13.96;100.00;98903.63;1718413;81;21021;-75
2021/05/29 05:35:10;;;;;;;3.58;1.85;;;;;;;13.96;100.00;98911.91;1697860;83;21065;-75
2021/05/29 05:37:37;;;;;;;3.65;1.55;;;;;;;13.97;100.00;98908.58;1728589;82;21614;-75
2021/05/29 05:40:05;;;;;;;2.85;2.20;;;;;;;14.00;100.00;98911.43;1724139;82;21014;-77
2021/05/29 05:42:32;;;;;;;2.90;2.08;;;;;;;14.02;100.00;98920.16;1749381;80;20994;-76
2021/05/29 05:44:59;;;;;;;2.37;2.00;;;;;;;14.06;100.00;98925.77;1754324;79;21097;-78
2021/05/29 05:47:25;;;;;;;2.00;1.80;;;;;;;14.09;100.00;98920.34;1752164;80;21049;-86
2021/05/29 05:49:51;;;;;;;3.12;1.90;;;;;;;14.13;100.00;98923.20;1749488;80;20907;-78
2021/05/29 05:52:18;;;;;;;1.90;1.57;;;;;;;14.17;100.00;98929.04;1732238;81;21537;-78
2021/05/29 05:54:44;;;;;;;4.55;2.00;;;;;;;14.21;100.00;98927.18;1720954;81;21005;-84
2021/05/29 05:57:11;;;;;;;1.87;1.77;;;;;;;14.25;100.00;98932.80;1740171;80;20998;-81
2021/05/29 05:59:40;;;;;;;2.60;1.45;;;;;;;14.27;100.00;98934.63;1740591;80;20910;-75
2021/05/29 06:02:07;;;;;;;1.90;1.70;;;;;;;14.31;100.00;98932.75;1745961;79;20913;-77
2021/05/29 06:04:33;;;;;;;4.45;1.90;;;;;;;14.30;100.00;98938.63;1756941;79;21680;-85
2021/05/29 06:07:00;;;;;;;2.80;2.10;;;;;;;14.32;100.00;98937.70;1746122;80;21093;-77
2021/05/29 06:09:28;;;;;;;2.40;1.95;;;;;;;14.37;100.00;98942.95;1746397;80;20989;-78
2021/05/29 06:11:55;;;;;;;4.33;1.82;;;;;;;14.43;100.00;98944.33;1749201;80;21713;-79
2021/05/29 06:19:53;;;;;;;3.62;1.82;;;;;;;14.59;100.00;98949.25;1682980;83;21663;-83
2021/05/29 06:22:20;;;;;;;2.50;2.05;;;;;;;14.66;100.00;98949.43;1682006;84;21046;-76
2021/05/29 06:24:46;;;;;;;2.85;1.95;;;;;;;14.69;100.00;98963.11;1734631;81;21083;-74
2021/05/29 06:27:13;;;;;;;2.55;2.08;;;;;;;14.69;100.00;98960.34;1739138;80;21647;-76
2021/05/29 06:29:39;;;;;;;4.12;1.98;;;;;;;14.71;100.00;98955.27;1723864;82;21584;-78
2021/05/29 06:32:07;;;;;;;3.27;1.75;;;;;;;14.76;100.00;98960.52;1724382;82;21129;-77
2021/05/29 06:34:34;;;;;;;2.02;1.70;;;;;;;14.74;100.00;98960.08;1723377;82;21026;-77
2021/05/29 06:37:02;;;;;;;3.42;1.75;;;;;;;14.67;100.00;98960.70;1725935;82;21536;-78
2021/05/29 06:39:28;;;;;;;2.27;1.85;;;;;;;14.60;100.00;98962.48;1716763;82;21118;-78
2021/05/29 06:41:55;;;;;;;2.22;1.50;;;;;;;14.56;100.00;98968.49;1710027;82;21642;-77
2021/05/29 06:44:21;;;;;;;4.33;1.77;;;;;;;14.53;100.00;98971.39;1670501;84;21133;-76
2021/05/29 06:46:48;;;;;;;2.80;1.87;;;;;;;14.49;100.00;98979.58;1727108;82;21125;-76
2021/05/29 06:49:19;;;;;;;2.22;1.67;;;;;;;14.50;100.00;98967.95;1739044;81;21240;-76
2021/05/29 06:51:55;;;;;;;3.50;2.05;;;;;;;14.51;100.00;98969.56;1727067;81;21014;-76
2021/05/29 06:54:25;;;;;;;2.90;1.80;;;;;;;14.53;100.00;98977.72;1736133;81;20975;-76
2021/05/29 06:59:28;;;;;;;6.92;2.00;;;;;;;14.70;100.00;98981.28;1724857;82;20902;-77
2021/05/29 07:01:55;;;;;;;4.10;2.15;;;;;;;14.76;100.00;98971.57;1708418;82;21613;-75
2021/05/29 07:04:21;;;;;;;2.55;1.90;;;;;;;14.88;100.00;98972.05;1668669;84;20931;-76
2021/05/29 07:06:48;;;;;;;2.10;1.85;;;;;;;15.02;99.48;98967.64;1738604;80;20993;-75
2021/05/29 07:09:17;;;;;;;2.02;1.77;;;;;;;15.19;100.00;98967.84;1736977;80;21093;-76
2021/05/29 07:11:45;;;;;;;3.58;2.20;;;;;;;15.36;99.51;98962.48;1725550;82;21437;-75
2021/05/29 07:14:14;;;;;;;2.37;1.77;;;;;;;15.59;99.10;98962.63;1732692;81;20990;-76
2021/05/29 07:16:42;;;;;;;5.53;2.10;;;;;;;15.93;97.70;98960.92;1732504;82;20973;-76
2021/05/29 07:19:11;;;;;;;3.90;2.02;;;;;;;16.30;99.35;98959.83;1732168;81;21680;-76
2021/05/29 07:21:39;;;;;;;3.37;2.15;;;;;;;16.78;96.91;98963.84;1744014;81;20910;-76
2021/05/29 07:24:06;;;;;;;2.02;1.50;;;;;;;17.19;95.33;98962.13;1743929;81;21050;-76
2021/05/29 07:26:34;;;;;;;2.47;1.60;;;;;;;17.42;91.56;98960.05;1729693;83;21917;-75
2021/05/29 07:29:00;;;;;;;2.65;1.80;;;;;;;17.48;90.05;98961.91;1721381;82;21005;-76
2021/05/29 07:31:27;;;;;;;2.85;1.75;;;;;;;17.50;90.21;98959.56;1729157;80;21612;-75
2021/05/29 07:33:54;;;;;;;3.42;1.42;;;;;;;17.58;88.49;98957.09;1729378;80;21079;-76
2021/05/29 07:36:22;;;;;;;2.42;1.52;;;;;;;17.58;84.47;98953.52;1725950;82;21070;-76
2021/05/29 07:38:49;;;;;;;1.72;1.50;;;;;;;17.47;85.17;98958.92;1746667;80;21073;-74
2021/05/29 07:41:16;;;;;;;1.85;1.50;;;;;;;17.43;84.70;98956.10;1746811;81;21584;-74
2021/05/29 07:43:43;;;;;;;1.90;1.70;;;;;;;17.37;82.46;98959.58;1735416;80;21018;-76
2021/05/29 07:46:10;;;;;;;2.55;1.70;;;;;;;17.27;83.81;98960.25;1736756;81;21045;-76
2021/05/29 07:48:38;;;;;;;9.45;2.52;;;;;;;17.32;83.89;98958.55;1740506;81;21477;-76
2021/05/29 07:51:05;;;;;;;3.58;3.27;;;;;;;17.34;84.42;98963.09;1746598;80;21130;-75
2021/05/29 07:53:40;;;;;;;8.55;3.85;;;;;;;17.32;83.47;98959.34;1746109;81;21006;-76
2021/05/29 07:56:10;;;;;;;4.65;4.22;;;;;;;17.12;83.55;98964.20;1767109;80;21529;-77
2021/05/29 07:58:40;;;;;;;6.72;4.62;;;;;;;16.79;82.95;98964.06;1766734;80;21572;-77
2021/05/29 08:01:05;;;;;;;5.85;5.22;;;;;;;16.53;84.70;98977.27;1750659;80;21019;-76
2021/05/29 08:03:32;;;;;;;7.70;5.10;;;;;;;16.46;87.08;98965.48;1755878;79;21828;-76
2021/05/29 08:05:58;;;;;;;7.20;5.12;;;;;;;16.61;89.54;98967.92;1756849;81;21473;-77
2021/05/29 08:08:25;;;;;;;8.40;4.33;;;;;;;16.72;85.41;98958.43;1760086;81;20962;-76
2021/05/29 08:10:53;;;;;;;6.33;4.55;;;;;;;16.71;86.66;98966.53;1708409;83;20990;-76
2021/05/29 08:13:20;;;;;;;5.55;4.53;;;;;;;16.70;84.34;98974.05;1757029;81;20939;-76
2021/05/29 08:15:47;;;;;;;5.95;3.87;;;;;;;16.62;84.83;98983.38;1712746;83;21001;-77
2021/05/29 08:18:16;;;;;;;6.90;4.83;;;;;;;16.59;85.71;98980.54;1754167;81;21033;-76
2021/05/29 08:20:45;;;;;;;15.53;4.50;;;;;;;16.68;87.12;98977.77;1753012;81;20910;-76
2021/05/29 08:23:12;;;;;;;5.47;4.47;;;;;;;16.88;88.09;98974.89;1747842;81;21517;-76
2021/05/29 08:25:38;;;;;;;4.97;4.47;;;;;;;17.04;86.21;98980.52;1732988;81;20993;-77
2021/05/29 08:28:04;;;;;;;4.85;4.25;;;;;;;17.12;85.32;98978.06;1752043;80;21040;-76
2021/05/29 08:30:31;;;;;;;5.03;3.92;;;;;;;17.10;83.47;98988.73;1780468;80;20914;-75
2021/05/29 08:32:57;;;;;;;5.35;4.53;;;;;;;17.00;81.91;98984.41;1756295;80;21492;-75
2021/05/29 08:35:24;;;;;;;5.97;4.70;;;;;;;16.89;82.60;98984.23;1764589;78;20963;-75
2021/05/29 08:37:51;;;;;;;10.50;4.78;;;;;;;16.81;83.90;98987.47;1754443;80;21105;-76
2021/05/29 08:40:19;;;;;;;8.75;4.83;;;;;;;16.79;83.70;98986.23;1759839;80;21430;-76
2021/05/29 08:42:46;;;;;;;5.03;4.40;;;;;;;16.76;83.44;98988.36;1742967;81;20980;-76
2021/05/29 08:45:15;;;;;;;6.75;5.10;;;;;;;16.81;83.82;98986.67;1731204;81;20965;-77
2021/05/29 08:47:41;;;;;;;8.18;5.05;;;;;;;16.97;84.55;98987.92;1725480;82;21050;-75
2021/05/29 08:50:10;;;;;;;15.03;5.67;;;;;;;17.21;85.49;98985.33;1685696;82;21054;-76
2021/05/29 08:52:36;;;;;;;10.50;5.33;;;;;;;17.45;83.65;98987.64;1772459;80;21070;-75
2021/05/29 08:55:06;;;;;;;14.90;6.25;;;;;;;17.63;82.40;98982.34;1777741;80;20974;-75
2021/05/29 08:57:33;;;;;;;22.45;7.25;;;;;;;17.66;81.46;98991.33;1771579;80;20875;-75
2021/05/29 09:00:00;;;;;;;6.22;4.50;;;;;;;17.64;78.95;98993.65;1690127;83;21069;-76
2021/05/29 09:02:28;;;;;;;4.80;3.80;;;;;;;17.51;79.67;98997.23;1724674;82;20927;-75
2021/05/29 09:05:07;;;;;;;5.05;4.33;;;;;;;17.46;78.53;98993.40;1726978;82;21122;-75
2021/05/29 09:07:33;;;;;;;10.82;5.20;;;;;;;17.38;78.92;98993.08;1737062;81;20879;-77
2021/05/29 09:10:23;;;;;;;5.05;4.50;;;;;;;17.44;80.84;98997.13;1684128;83;21140;-76
2021/05/29 09:13:09;;;;;;;6.08;3.72;;;;;;;17.59;78.95;98997.55;1708124;81;21144;-75
2021/05/29 09:15:46;;;;;;;5.17;3.80;;;;;;;17.77;79.72;98991.69;1736314;81;21062;-75
2021/05/29 09:18:35;;;;;;;7.03;3.90;;;;;;;17.89;78.26;98999.56;1736553;81;21658;-76
2021/05/29 09:21:30;;;;;;;5.58;3.40;;;;;;;17.99;76.25;98991.92;1729471;81;20974;-75
2021/05/29 09:24:07;;;;;;;5.75;3.92;;;;;;;17.98;75.97;98989.73;1743289;81;21006;-75
2021/05/29 09:26:54;;;;;;;7.28;4.97;;;;;;;17.91;76.26;98989.64;1746901;79;20965;-75
2021/05/29 09:29:28;;;;;;;5.62;4.95;;;;;;;17.89;75.85;99002.34;1760151;79;21464;-76
2021/05/29 09:32:06;;;;;;;5.55;3.70;;;;;;;17.85;75.88;98995.34;1771465;80;21086;-75
2021/05/29 09:34:47;;;;;;;4.87;3.45;;;;;;;18.00;77.53;98994.32;1761563;80;20966;-75
2021/05/29 09:37:26;;;;;;;6.20;4.08;;;;;;;18.24;76.62;98996.38;1749557;80;21501;-76
2021/05/29 09:39:59;;;;;;;6.72;4.33;;;;;;;18.42;76.31;98991.23;1740965;80;21484;-75
2021/05/29 09:42:40;;;;;;;6.00;4.05;;;;;;;18.49;74.59;98998.22;1754358;79;20958;-75
2021/05/29 09:45:25;;;;;;;6.60;4.40;;;;;;;18.40;74.26;98998.34;1765788;79;21511;-77
2021/05/29 09:48:18;;;;;;;4.53;3.83;;;;;;;18.27;74.79;99000.59;1747097;80;20961;-76
2021/05/29 09:51:07;;;;;;;3.80;3.50;;;;;;;18.18;75.30;99007.03;1739092;80;21529;-75
2021/05/29 09:53:44;;;;;;;5.70;3.47;;;;;;;18.09;73.32;99010.11;1720856;82;21002;-76
2021/05/29 09:56:35;;;;;;;4.15;3.75;;;;;;;17.93;74.32;99020.61;1710223;81;20978;-76
2021/05/29 09:59:05;;;;;;;5.25;3.72;;;;;;;17.81;75.27;99017.52;1687438;81;21139;-77
2021/05/29 10:01:50;;;;;;;4.80;3.92;;;;;;;17.73;74.81;99017.20;1727758;81;21504;-76
2021/05/29 10:04:38;;;;;;;5.72;3.85;;;;;;;17.63;74.74;99017.03;1724301;80;20895;-76
2021/05/29 10:07:07;;;;;;;5.10;3.62;;;;;;;17.53;75.66;99024.02;1694322;83;21226;-72
2021/05/29 10:09:35;;;;;;;3.80;3.22;;;;;;;17.49;75.46;99020.40;1733453;81;20986;-73
2021/05/29 10:12:04;;;;;;;5.30;3.42;;;;;;;17.43;75.14;99024.08;1737664;80;21513;-73
2021/05/29 10:14:31;;;;;;;6.95;3.50;;;;;;;17.36;75.29;99028.13;1741335;81;20907;-74
2021/05/29 10:16:59;;;;;;;3.83;3.10;;;;;;;17.37;75.33;99026.96;1732944;81;21100;-75
2021/05/29 10:19:25;;;;;;;6.67;3.80;;;;;;;17.41;75.85;99024.23;1741347;81;20981;-74
2021/05/29 10:21:54;;;;;;;5.25;3.35;;;;;;;17.46;76.61;99026.70;1726970;81;21022;-75
2021/05/29 10:24:23;;;;;;;4.37;3.60;;;;;;;17.51;76.58;99031.92;1734512;82;21054;-73
2021/05/29 10:26:51;;;;;;;4.45;3.95;;;;;;;17.54;75.96;99028.40;1726503;82;20978;-73
2021/05/29 10:29:20;;;;;;;7.30;4.10;;;;;;;17.56;75.51;99030.80;1715506;82;21550;-77
2021/05/29 10:31:46;;;;;;;4.25;3.08;;;;;;;17.51;75.62;99030.53;1718832;82;21802;-71
2021/05/29 10:34:13;;;;;;;4.87;3.90;;;;;;;17.47;74.53;99032.45;1738399;81;21053;-71
2021/05/29 10:36:47;;;;;;;6.00;3.70;;;;;;;17.42;76.04;99037.74;1743671;81;21069;-72
2021/05/29 10:39:41;;;;;;;7.03;3.62;;;;;;;17.36;75.79;99034.27;1709067;81;21073;-72
2021/05/29 10:42:08;;;;;;;5.35;3.83;;;;;;;17.22;76.68;99028.53;1747644;81;20922;-72
2021/05/29 10:44:44;;;;;;;9.70;3.98;;;;;;;17.11;78.63;99034.70;1689216;83;21077;-72
2021/05/29 10:47:18;;;;;;;5.53;4.58;;;;;;;17.12;79.96;99025.22;1738738;80;21052;-72
2021/05/29 10:49:54;;;;;;;5.72;4.00;;;;;;;17.15;81.64;99027.24;1723582;81;21082;-74
2021/05/29 10:52:43;;;;;;;5.17;3.83;;;;;;;17.17;81.03;99032.42;1746311;80;21596;-74
2021/05/29 10:55:19;;;;;;;4.83;3.60;;;;;;;17.19;81.74;99031.46;1734445;80;20982;-72
2021/05/29 10:58:06;;;;;;;4.25;3.52;;;;;;;17.27;82.08;99038.72;1753292;80;21066;-73
2021/05/29 11:00:41;;;;;;;6.72;4.30;;;;;;;17.33;81.27;99034.43;1741080;80;21602;-72
2021/05/29 11:03:28;;;;;;;6.87;3.90;;;;;;;17.48;83.41;99036.83;1752314;80;21116;-76
2021/05/29 11:05:57;;;;;;;6.45;4.30;;;;;;;17.69;83.21;99034.40;1741157;80;21168;-73
2021/05/29 11:08:53;;;;;;;6.83;3.47;;;;;;;17.80;81.47;99027.02;1753398;80;21078;-72
2021/05/29 11:14:29;;;;;;;4.37;3.90;;;;;;;18.18;80.35;99029.25;1725901;80;21036;-73
2021/05/29 11:17:06;;;;;;;5.87;4.00;;;;;;;18.48;78.69;99029.20;1740128;80;21081;-73
2021/05/29 11:19:34;;;;;;;6.42;3.85;;;;;;;18.75;77.13;99021.54;1757607;80;21109;-73
2021/05/29 11:22:12;;;;;;;5.33;3.50;;;;;;;18.89;75.86;99020.28;1738174;81;21092;-74
2021/05/29 11:24:56;;;;;;;3.80;3.08;;;;;;;18.89;74.36;99013.33;1684189;83;21104;-74
2021/05/29 11:27:33;;;;;;;4.65;3.55;;;;;;;18.89;73.32;99020.28;1759090;81;20947;-73
2021/05/29 11:30:16;;;;;;;4.15;3.15;;;;;;;18.93;72.76;99014.16;1701050;82;21091;-72
2021/05/29 11:33:03;;;;;;;3.83;2.90;;;;;;;19.07;73.50;99007.89;1762657;80;20954;-73
2021/05/29 11:35:50;;;;;;;3.92;2.60;;;;;;;19.20;70.67;99016.73;1744583;80;21016;-76
2021/05/29 11:38:31;;;;;;;5.65;3.27;;;;;;;19.28;68.64;99012.81;1738904;80;21546;-73
2021/05/29 11:41:13;;;;;;;2.52;2.33;;;;;;;19.35;68.65;99010.09;1755584;79;21012;-74
2021/05/29 11:43:53;;;;;;;3.12;2.40;;;;;;;19.43;65.23;99011.73;1744418;80;21117;-73
2021/05/29 11:46:25;;;;;;;3.37;2.50;;;;;;;19.54;67.22;99014.02;1758698;79;21021;-73
2021/05/29 11:49:01;;;;;;;3.42;2.60;;;;;;;19.73;66.63;99012.31;1686792;83;20999;-72
2021/05/29 11:51:36;;;;;;;5.60;2.92;;;;;;;19.88;63.98;99009.61;1698477;83;21069;-73